sensor_id;sensor_type;location;lat;lon;timestamp;pressure;altitude;pressure_sealevel;temperature
19061;BMP280;9663;48.996;8.334;2022-08-25T00:01:41;100247.75;;;25.87
19061;BMP280;9663;48.996;8.334;2022-08-25T00:04:11;100247.66;;;25.88
19061;BMP280;9663;48.996;8.334;2022-08-25T00:06:39;100249.94;;;25.93
19061;BMP280;9663;48.996;8.334;2022-08-25T00:09:06;100244.31;;;25.99
19061;BMP280;9663;48.996;8.334;2022-08-25T00:11:35;100232.56;;;26.06
19061;BMP280;9663;48.996;8.334;2022-08-25T00:14:13;100232.19;;;26.12
19061;BMP280;9663;48.996;8.334;2022-08-25T00:16:40;100232.50;;;26.20
19061;BMP280;9663;48.996;8.334;2022-08-25T00:19:12;100236.25;;;26.28
19061;BMP280;9663;48.996;8.334;2022-08-25T00:21:40;100240.09;;;26.35
19061;BMP280;9663;48.996;8.334;2022-08-25T00:24:07;100243.00;;;26.43
19061;BMP280;9663;48.996;8.334;2022-08-25T00:26:37;100248.72;;;26.48
19061;BMP280;9663;48.996;8.334;2022-08-25T00:29:03;100244.03;;;26.53
19061;BMP280;9663;48.996;8.334;2022-08-25T00:31:30;100246.53;;;26.54
19061;BMP280;9663;48.996;8.334;2022-08-25T00:33:55;100242.78;;;26.58
19061;BMP280;9663;48.996;8.334;2022-08-25T00:36:21;100250.47;;;26.60
19061;BMP280;9663;48.996;8.334;2022-08-25T00:38:48;100255.56;;;26.61
19061;BMP280;9663;48.996;8.334;2022-08-25T00:41:19;100260.69;;;26.63
19061;BMP280;9663;48.996;8.334;2022-08-25T00:43:55;100256.41;;;26.62
19061;BMP280;9663;48.996;8.334;2022-08-25T00:46:27;100257.25;;;26.62
19061;BMP280;9663;48.996;8.334;2022-08-25T00:49:06;100255.56;;;26.61
19061;BMP280;9663;48.996;8.334;2022-08-25T00:54:19;100242.47;;;26.63
19061;BMP280;9663;48.996;8.334;2022-08-25T00:56:49;100241.53;;;26.64
19061;BMP280;9663;48.996;8.334;2022-08-25T00:59:21;100243.19;;;26.64
19061;BMP280;9663;48.996;8.334;2022-08-25T01:01:49;100240.59;;;26.64
19061;BMP280;9663;48.996;8.334;2022-08-25T01:04:15;100243.09;;;26.66
19061;BMP280;9663;48.996;8.334;2022-08-25T01:06:43;100246.66;;;26.65
19061;BMP280;9663;48.996;8.334;2022-08-25T01:09:12;100256.19;;;26.64
19061;BMP280;9663;48.996;8.334;2022-08-25T01:11:43;100251.09;;;26.63
19061;BMP280;9663;48.996;8.334;2022-08-25T01:14:11;100245.91;;;26.63
19061;BMP280;9663;48.996;8.334;2022-08-25T01:16:39;100252.97;;;26.61
19061;BMP280;9663;48.996;8.334;2022-08-25T01:19:08;100258.19;;;26.61
19061;BMP280;9663;48.996;8.334;2022-08-25T01:21:43;100261.00;;;26.58
19061;BMP280;9663;48.996;8.334;2022-08-25T01:24:21;100265.78;;;26.52
19061;BMP280;9663;48.996;8.334;2022-08-25T01:26:48;100261.84;;;26.46
19061;BMP280;9663;48.996;8.334;2022-08-25T01:29:14;100261.63;;;26.37
19061;BMP280;9663;48.996;8.334;2022-08-25T01:31:49;100266.53;;;26.29
19061;BMP280;9663;48.996;8.334;2022-08-25T01:34:16;100255.69;;;26.22
19061;BMP280;9663;48.996;8.334;2022-08-25T01:36:43;100260.38;;;26.18
19061;BMP280;9663;48.996;8.334;2022-08-25T01:39:11;100268.56;;;26.12
19061;BMP280;9663;48.996;8.334;2022-08-25T01:44:27;100265.94;;;25.99
19061;BMP280;9663;48.996;8.334;2022-08-25T01:46:53;100262.50;;;25.99
19061;BMP280;9663;48.996;8.334;2022-08-25T01:49:20;100266.06;;;25.98
19061;BMP280;9663;48.996;8.334;2022-08-25T01:51:55;100267.81;;;25.97
19061;BMP280;9663;48.996;8.334;2022-08-25T01:54:21;100264.59;;;25.94
19061;BMP280;9663;48.996;8.334;2022-08-25T01:56:46;100262.94;;;25.93
19061;BMP280;9663;48.996;8.334;2022-08-25T01:59:19;100262.09;;;25.92
19061;BMP280;9663;48.996;8.334;2022-08-25T02:01:45;100264.69;;;25.92
19061;BMP280;9663;48.996;8.334;2022-08-25T02:04:11;100267.28;;;25.92
19061;BMP280;9663;48.996;8.334;2022-08-25T02:06:37;100265.53;;;25.93
19061;BMP280;9663;48.996;8.334;2022-08-25T02:09:13;100266.47;;;25.92
19061;BMP280;9663;48.996;8.334;2022-08-25T02:11:43;100272.47;;;25.92
19061;BMP280;9663;48.996;8.334;2022-08-25T02:14:11;100268.13;;;25.93
19061;BMP280;9663;48.996;8.334;2022-08-25T02:16:41;100266.47;;;25.92
19061;BMP280;9663;48.996;8.334;2022-08-25T02:19:10;100261.47;;;25.89
19061;BMP280;9663;48.996;8.334;2022-08-25T02:21:37;100258.13;;;25.87
19061;BMP280;9663;48.996;8.334;2022-08-25T02:24:04;100255.75;;;25.84
19061;BMP280;9663;48.996;8.334;2022-08-25T02:26:31;100254.19;;;25.81
19061;BMP280;9663;48.996;8.334;2022-08-25T02:28:57;100255.22;;;25.79
19061;BMP280;9663;48.996;8.334;2022-08-25T02:31:24;100254.47;;;25.77
19061;BMP280;9663;48.996;8.334;2022-08-25T02:33:51;100263.19;;;25.76
19061;BMP280;9663;48.996;8.334;2022-08-25T02:36:18;100259.06;;;25.74
19061;BMP280;9663;48.996;8.334;2022-08-25T02:38:44;100253.97;;;25.72
19061;BMP280;9663;48.996;8.334;2022-08-25T02:41:22;100253.13;;;25.72
19061;BMP280;9663;48.996;8.334;2022-08-25T02:43:50;100250.41;;;25.73
19061;BMP280;9663;48.996;8.334;2022-08-25T02:46:19;100252.81;;;25.76
19061;BMP280;9663;48.996;8.334;2022-08-25T02:48:46;100251.88;;;25.77
19061;BMP280;9663;48.996;8.334;2022-08-25T02:51:13;100254.28;;;25.80
19061;BMP280;9663;48.996;8.334;2022-08-25T02:53:40;100250.75;;;25.81
19061;BMP280;9663;48.996;8.334;2022-08-25T02:56:09;100248.03;;;25.82
19061;BMP280;9663;48.996;8.334;2022-08-25T02:58:37;100248.78;;;25.84
19061;BMP280;9663;48.996;8.334;2022-08-25T03:01:04;100245.25;;;25.85
19061;BMP280;9663;48.996;8.334;2022-08-25T03:03:29;100250.25;;;25.88
19061;BMP280;9663;48.996;8.334;2022-08-25T03:05:55;100250.16;;;25.90
19061;BMP280;9663;48.996;8.334;2022-08-25T03:08:22;100252.56;;;25.93
19061;BMP280;9663;48.996;8.334;2022-08-25T03:10:48;100245.56;;;25.93
19061;BMP280;9663;48.996;8.334;2022-08-25T03:13:14;100248.28;;;25.92
19061;BMP280;9663;48.996;8.334;2022-08-25T03:15:41;100249.53;;;25.86
19061;BMP280;9663;48.996;8.334;2022-08-25T03:18:08;100245.53;;;25.81
19061;BMP280;9663;48.996;8.334;2022-08-25T03:20:36;100251.97;;;25.76
19061;BMP280;9663;48.996;8.334;2022-08-25T03:23:04;100252.28;;;25.71
19061;BMP280;9663;48.996;8.334;2022-08-25T03:25:30;100252.59;;;25.67
19061;BMP280;9663;48.996;8.334;2022-08-25T03:28:15;100247.84;;;25.59
19061;BMP280;9663;48.996;8.334;2022-08-25T03:30:42;100244.72;;;25.54
19061;BMP280;9663;48.996;8.334;2022-08-25T03:33:08;100242.41;;;25.50
19061;BMP280;9663;48.996;8.334;2022-08-25T03:35:34;100234.09;;;25.45
19061;BMP280;9663;48.996;8.334;2022-08-25T03:38:00;100230.88;;;25.41
19061;BMP280;9663;48.996;8.334;2022-08-25T03:40:26;100226.91;;;25.36
19061;BMP280;9663;48.996;8.334;2022-08-25T03:42:53;100222.63;;;25.35
19061;BMP280;9663;48.996;8.334;2022-08-25T03:45:22;100222.75;;;25.33
19061;BMP280;9663;48.996;8.334;2022-08-25T03:47:50;100223.59;;;25.34
19061;BMP280;9663;48.996;8.334;2022-08-25T03:50:18;100222.00;;;25.32
19061;BMP280;9663;48.996;8.334;2022-08-25T03:52:50;100228.03;;;25.32
19061;BMP280;9663;48.996;8.334;2022-08-25T03:55:16;100228.16;;;25.31
19061;BMP280;9663;48.996;8.334;2022-08-25T03:57:42;100230.75;;;25.31
19061;BMP280;9663;48.996;8.334;2022-08-25T04:00:09;100224.72;;;25.30
19061;BMP280;9663;48.996;8.334;2022-08-25T04:02:37;100227.28;;;25.30
19061;BMP280;9663;48.996;8.334;2022-08-25T04:05:03;100229.91;;;25.30
19061;BMP280;9663;48.996;8.334;2022-08-25T04:07:29;100228.16;;;25.31
19061;BMP280;9663;48.996;8.334;2022-08-25T04:09:54;100239.47;;;25.30
19061;BMP280;9663;48.996;8.334;2022-08-25T04:12:21;100236.13;;;25.28
19061;BMP280;9663;48.996;8.334;2022-08-25T04:14:47;100237.06;;;25.27
19061;BMP280;9663;48.996;8.334;2022-08-25T04:17:13;100244.09;;;25.25
19061;BMP280;9663;48.996;8.334;2022-08-25T04:19:39;100242.44;;;25.24
19061;BMP280;9663;48.996;8.334;2022-08-25T04:22:05;100245.22;;;25.21
19061;BMP280;9663;48.996;8.334;2022-08-25T04:24:31;100240.34;;;25.16
19061;BMP280;9663;48.996;8.334;2022-08-25T04:26:57;100245.09;;;25.10
19061;BMP280;9663;48.996;8.334;2022-08-25T04:29:24;100249.00;;;25.03
19061;BMP280;9663;48.996;8.334;2022-08-25T04:31:51;100246.69;;;24.98
19061;BMP280;9663;48.996;8.334;2022-08-25T04:34:21;100242.78;;;24.91
19061;BMP280;9663;48.996;8.334;2022-08-25T04:36:47;100254.25;;;24.88
19061;BMP280;9663;48.996;8.334;2022-08-25T04:39:16;100250.28;;;24.82
19061;BMP280;9663;48.996;8.334;2022-08-25T04:41:45;100254.19;;;24.75
19061;BMP280;9663;48.996;8.334;2022-08-25T04:44:11;100252.78;;;24.70
19061;BMP280;9663;48.996;8.334;2022-08-25T04:46:37;100254.00;;;24.64
19061;BMP280;9663;48.996;8.334;2022-08-25T04:49:03;100249.09;;;24.60
19061;BMP280;9663;48.996;8.334;2022-08-25T04:51:36;100243.28;;;24.56
19061;BMP280;9663;48.996;8.334;2022-08-25T04:54:13;100239.22;;;24.52
19061;BMP280;9663;48.996;8.334;2022-08-25T04:56:42;100247.81;;;24.53
19061;BMP280;9663;48.996;8.334;2022-08-25T04:59:12;100245.13;;;24.54
19061;BMP280;9663;48.996;8.334;2022-08-25T05:01:39;100240.75;;;24.55
19061;BMP280;9663;48.996;8.334;2022-08-25T05:04:09;100243.28;;;24.56
19061;BMP280;9663;48.996;8.334;2022-08-25T05:06:35;100242.25;;;24.59
19061;BMP280;9663;48.996;8.334;2022-08-25T05:09:03;100234.31;;;24.62
19061;BMP280;9663;48.996;8.334;2022-08-25T05:11:29;100240.13;;;24.65
19061;BMP280;9663;48.996;8.334;2022-08-25T05:13:57;100222.63;;;24.69
19061;BMP280;9663;48.996;8.334;2022-08-25T05:16:25;100236.22;;;24.72
19061;BMP280;9663;48.996;8.334;2022-08-25T05:18:53;100239.38;;;24.77
19061;BMP280;9663;48.996;8.334;2022-08-25T05:21:26;100242.59;;;24.81
19061;BMP280;9663;48.996;8.334;2022-08-25T05:23:58;100247.50;;;24.85
19061;BMP280;9663;48.996;8.334;2022-08-25T05:26:27;100250.66;;;24.90
19061;BMP280;9663;48.996;8.334;2022-08-25T05:28:55;100243.41;;;24.95
19061;BMP280;9663;48.996;8.334;2022-08-25T05:31:23;100246.41;;;25.03
19061;BMP280;9663;48.996;8.334;2022-08-25T05:33:50;100240.81;;;25.09
19061;BMP280;9663;48.996;8.334;2022-08-25T05:36:17;100246.34;;;25.17
19061;BMP280;9663;48.996;8.334;2022-08-25T05:38:44;100240.69;;;25.24
19061;BMP280;9663;48.996;8.334;2022-08-25T05:41:16;100231.66;;;25.30
19061;BMP280;9663;48.996;8.334;2022-08-25T05:43:44;100233.03;;;25.35
19061;BMP280;9663;48.996;8.334;2022-08-25T05:46:11;100238.75;;;25.40
19061;BMP280;9663;48.996;8.334;2022-08-25T05:48:37;100234.00;;;25.46
19061;BMP280;9663;48.996;8.334;2022-08-25T05:51:06;100235.34;;;25.52
19061;BMP280;9663;48.996;8.334;2022-08-25T05:53:33;100234.97;;;25.58
19061;BMP280;9663;48.996;8.334;2022-08-25T05:55:59;100229.31;;;25.65
19061;BMP280;9663;48.996;8.334;2022-08-25T05:58:28;100217.69;;;25.71
19061;BMP280;9663;48.996;8.334;2022-08-25T06:00:55;100228.50;;;25.77
19061;BMP280;9663;48.996;8.334;2022-08-25T06:03:21;100223.00;;;25.81
19061;BMP280;9663;48.996;8.334;2022-08-25T06:05:48;100227.88;;;25.86
19061;BMP280;9663;48.996;8.334;2022-08-25T06:08:13;100231.09;;;25.89
19061;BMP280;9663;48.996;8.334;2022-08-25T06:10:41;100224.78;;;25.93
19061;BMP280;9663;48.996;8.334;2022-08-25T06:13:07;100221.03;;;25.97
19061;BMP280;9663;48.996;8.334;2022-08-25T06:15:34;100220.63;;;26.03
19061;BMP280;9663;48.996;8.334;2022-08-25T06:17:59;100218.47;;;26.10
19061;BMP280;9663;48.996;8.334;2022-08-25T06:20:29;100223.13;;;26.17
19061;BMP280;9663;48.996;8.334;2022-08-25T06:22:56;100218.44;;;26.22
19061;BMP280;9663;48.996;8.334;2022-08-25T06:25:25;100218.88;;;26.28
19061;BMP280;9663;48.996;8.334;2022-08-25T06:27:53;100214.00;;;26.36
19061;BMP280;9663;48.996;8.334;2022-08-25T06:30:21;100205.69;;;26.44
19061;BMP280;9663;48.996;8.334;2022-08-25T06:32:48;100201.00;;;26.49
19061;BMP280;9663;48.996;8.334;2022-08-25T06:35:18;100195.44;;;26.53
19061;BMP280;9663;48.996;8.334;2022-08-25T06:37:44;100191.38;;;26.62
19061;BMP280;9663;48.996;8.334;2022-08-25T06:40:11;100196.25;;;26.66
19061;BMP280;9663;48.996;8.334;2022-08-25T06:42:38;100191.34;;;26.74
19061;BMP280;9663;48.996;8.334;2022-08-25T06:45:04;100188.94;;;26.83
19061;BMP280;9663;48.996;8.334;2022-08-25T06:47:31;100185.59;;;26.94
19061;BMP280;9663;48.996;8.334;2022-08-25T06:49:57;100196.78;;;27.07
19061;BMP280;9663;48.996;8.334;2022-08-25T06:52:22;100196.13;;;27.15
19061;BMP280;9663;48.996;8.334;2022-08-25T06:54:48;100190.16;;;27.26
19061;BMP280;9663;48.996;8.334;2022-08-25T06:57:14;100193.63;;;27.37
19061;BMP280;9663;48.996;8.334;2022-08-25T06:59:40;100192.75;;;27.49
19061;BMP280;9663;48.996;8.334;2022-08-25T07:02:07;100208.19;;;27.63
19061;BMP280;9663;48.996;8.334;2022-08-25T07:04:34;100195.09;;;27.75
19061;BMP280;9663;48.996;8.334;2022-08-25T07:07:00;100189.91;;;27.86
19061;BMP280;9663;48.996;8.334;2022-08-25T07:09:26;100192.41;;;27.98
19061;BMP280;9663;48.996;8.334;2022-08-25T07:11:51;100187.34;;;28.08
19061;BMP280;9663;48.996;8.334;2022-08-25T07:14:18;100188.19;;;28.19
19061;BMP280;9663;48.996;8.334;2022-08-25T07:16:45;100179.66;;;28.28
19061;BMP280;9663;48.996;8.334;2022-08-25T07:19:11;100184.28;;;28.36
19061;BMP280;9663;48.996;8.334;2022-08-25T07:21:40;100185.47;;;28.42
19061;BMP280;9663;48.996;8.334;2022-08-25T07:24:10;100189.00;;;28.52
19061;BMP280;9663;48.996;8.334;2022-08-25T07:26:39;100180.25;;;28.64
19061;BMP280;9663;48.996;8.334;2022-08-25T07:29:15;100189.59;;;28.78
19061;BMP280;9663;48.996;8.334;2022-08-25T07:31:41;100184.38;;;28.88
19061;BMP280;9663;48.996;8.334;2022-08-25T07:34:07;100186.84;;;29.01
19061;BMP280;9663;48.996;8.334;2022-08-25T07:36:53;100177.88;;;29.14
19061;BMP280;9663;48.996;8.334;2022-08-25T07:39:20;100177.84;;;29.25
19061;BMP280;9663;48.996;8.334;2022-08-25T07:41:46;100181.50;;;29.33
19061;BMP280;9663;48.996;8.334;2022-08-25T07:44:12;100182.16;;;29.46
19061;BMP280;9663;48.996;8.334;2022-08-25T07:46:38;100175.78;;;29.60
19061;BMP280;9663;48.996;8.334;2022-08-25T07:49:06;100180.03;;;29.71
19061;BMP280;9663;48.996;8.334;2022-08-25T07:51:32;100182.56;;;29.82
19061;BMP280;9663;48.996;8.334;2022-08-25T07:53:58;100179.09;;;29.93
19061;BMP280;9663;48.996;8.334;2022-08-25T07:56:23;100194.56;;;30.05
19061;BMP280;9663;48.996;8.334;2022-08-25T07:58:49;100185.81;;;30.15
19061;BMP280;9663;48.996;8.334;2022-08-25T08:01:21;100179.09;;;30.22
19061;BMP280;9663;48.996;8.334;2022-08-25T08:03:48;100169.88;;;30.28
19061;BMP280;9663;48.996;8.334;2022-08-25T08:06:20;100171.03;;;30.35
19061;BMP280;9663;48.996;8.334;2022-08-25T08:08:48;100174.38;;;30.37
19061;BMP280;9663;48.996;8.334;2022-08-25T08:11:26;100175.50;;;30.44
19061;BMP280;9663;48.996;8.334;2022-08-25T08:13:55;100182.94;;;30.48
19061;BMP280;9663;48.996;8.334;2022-08-25T08:16:24;100178.13;;;30.53
19061;BMP280;9663;48.996;8.334;2022-08-25T08:18:51;100180.66;;;30.64
19061;BMP280;9663;48.996;8.334;2022-08-25T08:21:24;100181.78;;;30.80
19061;BMP280;9663;48.996;8.334;2022-08-25T08:23:52;100182.16;;;31.24
19061;BMP280;9663;48.996;8.334;2022-08-25T08:26:19;100185.66;;;31.44
19061;BMP280;9663;48.996;8.334;2022-08-25T08:28:45;100176.66;;;31.27
19061;BMP280;9663;48.996;8.334;2022-08-25T08:31:11;100169.06;;;31.34
19061;BMP280;9663;48.996;8.334;2022-08-25T08:33:37;100172.53;;;31.44
19061;BMP280;9663;48.996;8.334;2022-08-25T08:36:08;100178.59;;;31.53
19061;BMP280;9663;48.996;8.334;2022-08-25T08:38:36;100177.47;;;31.65
19061;BMP280;9663;48.996;8.334;2022-08-25T08:44:14;100169.03;;;31.90
19061;BMP280;9663;48.996;8.334;2022-08-25T08:52:49;100154.72;;;32.21
19061;BMP280;9663;48.996;8.334;2022-08-25T08:56:05;100155.38;;;32.32
19061;BMP280;9663;48.996;8.334;2022-08-25T08:58:55;100147.41;;;32.51
19061;BMP280;9663;48.996;8.334;2022-08-25T09:01:30;100145.41;;;32.62
19061;BMP280;9663;48.996;8.334;2022-08-25T09:04:22;100140.81;;;32.64
19061;BMP280;9663;48.996;8.334;2022-08-25T09:06:51;100140.50;;;32.77
19061;BMP280;9663;48.996;8.334;2022-08-25T09:09:29;100147.59;;;32.93
19061;BMP280;9663;48.996;8.334;2022-08-25T09:25:27;100130.56;;;33.74
19061;BMP280;9663;48.996;8.334;2022-08-25T09:28:31;100121.97;;;33.90
19061;BMP280;9663;48.996;8.334;2022-08-25T09:31:24;100131.59;;;34.07
19061;BMP280;9663;48.996;8.334;2022-08-25T09:33:57;100117.16;;;34.18
19061;BMP280;9663;48.996;8.334;2022-08-25T09:36:24;100113.75;;;34.26
19061;BMP280;9663;48.996;8.334;2022-08-25T09:38:50;100115.41;;;34.35
19061;BMP280;9663;48.996;8.334;2022-08-25T09:41:35;100118.97;;;34.43
19061;BMP280;9663;48.996;8.334;2022-08-25T09:47:23;100113.09;;;34.73
19061;BMP280;9663;48.996;8.334;2022-08-25T09:50:02;100104.59;;;34.87
19061;BMP280;9663;48.996;8.334;2022-08-25T09:52:36;100106.91;;;34.97
19061;BMP280;9663;48.996;8.334;2022-08-25T09:57:43;100092.91;;;35.05
19061;BMP280;9663;48.996;8.334;2022-08-25T10:00:11;100088.97;;;35.09
19061;BMP280;9663;48.996;8.334;2022-08-25T10:02:38;100083.50;;;35.18
19061;BMP280;9663;48.996;8.334;2022-08-25T10:05:22;100089.63;;;35.27
19061;BMP280;9663;48.996;8.334;2022-08-25T10:07:54;100087.00;;;35.42
19061;BMP280;9663;48.996;8.334;2022-08-25T10:10:54;100086.50;;;35.47
19061;BMP280;9663;48.996;8.334;2022-08-25T10:13:35;100088.28;;;35.62
19061;BMP280;9663;48.996;8.334;2022-08-25T10:16:24;100074.41;;;35.76
19061;BMP280;9663;48.996;8.334;2022-08-25T10:22:24;100073.41;;;35.85
19061;BMP280;9663;48.996;8.334;2022-08-25T10:24:58;100063.13;;;35.98
19061;BMP280;9663;48.996;8.334;2022-08-25T10:27:51;100058.03;;;35.96
19061;BMP280;9663;48.996;8.334;2022-08-25T10:30:35;100057.84;;;36.06
19061;BMP280;9663;48.996;8.334;2022-08-25T10:33:44;100063.41;;;36.11
19061;BMP280;9663;48.996;8.334;2022-08-25T10:36:19;100049.00;;;36.21
19061;BMP280;9663;48.996;8.334;2022-08-25T10:38:53;100046.53;;;36.28
19061;BMP280;9663;48.996;8.334;2022-08-25T10:41:50;100050.50;;;36.31
19061;BMP280;9663;48.996;8.334;2022-08-25T10:47:47;100053.66;;;36.49
19061;BMP280;9663;48.996;8.334;2022-08-25T10:53:22;100037.06;;;36.85
19061;BMP280;9663;48.996;8.334;2022-08-25T10:56:07;100029.94;;;37.08
19061;BMP280;9663;48.996;8.334;2022-08-25T11:02:22;100016.53;;;37.32
19061;BMP280;9663;48.996;8.334;2022-08-25T11:05:04;100013.06;;;37.46
19061;BMP280;9663;48.996;8.334;2022-08-25T11:07:39;100003.59;;;37.51
19061;BMP280;9663;48.996;8.334;2022-08-25T11:10:18;100006.00;;;37.61
19061;BMP280;9663;48.996;8.334;2022-08-25T11:15:46;100004.69;;;37.85
19061;BMP280;9663;48.996;8.334;2022-08-25T11:18:15;100005.78;;;38.05
19061;BMP280;9663;48.996;8.334;2022-08-25T11:21:10;100007.59;;;38.19
19061;BMP280;9663;48.996;8.334;2022-08-25T11:23:52;100004.91;;;38.33
19061;BMP280;9663;48.996;8.334;2022-08-25T11:26:28;100002.47;;;38.73
19061;BMP280;9663;48.996;8.334;2022-08-25T11:29:05;99990.63;;;39.78
19061;BMP280;9663;48.996;8.334;2022-08-25T11:31:47;99989.06;;;41.39
19061;BMP280;9663;48.996;8.334;2022-08-25T11:34:14;99978.09;;;42.91
19061;BMP280;9663;48.996;8.334;2022-08-25T11:36:49;99968.19;;;44.22
19061;BMP280;9663;48.996;8.334;2022-08-25T11:51:09;99946.53;;;47.69
19061;BMP280;9663;48.996;8.334;2022-08-25T11:53:42;99942.50;;;48.19
19061;BMP280;9663;48.996;8.334;2022-08-25T11:56:32;99940.22;;;48.32
19061;BMP280;9663;48.996;8.334;2022-08-25T11:58:58;99936.81;;;48.41
19061;BMP280;9663;48.996;8.334;2022-08-25T12:09:32;99927.19;;;49.83
19061;BMP280;9663;48.996;8.334;2022-08-25T12:24:04;99906.06;;;51.38
19061;BMP280;9663;48.996;8.334;2022-08-25T12:26:52;99919.94;;;51.80
19061;BMP280;9663;48.996;8.334;2022-08-25T12:29:25;99910.81;;;52.09
19061;BMP280;9663;48.996;8.334;2022-08-25T12:38:13;99896.44;;;52.80
19061;BMP280;9663;48.996;8.334;2022-08-25T12:43:32;99891.56;;;52.77
19061;BMP280;9663;48.996;8.334;2022-08-25T12:49:29;99902.50;;;52.39
19061;BMP280;9663;48.996;8.334;2022-08-25T12:52:18;99905.34;;;52.19
19061;BMP280;9663;48.996;8.334;2022-08-25T12:54:57;99896.91;;;51.87
19061;BMP280;9663;48.996;8.334;2022-08-25T12:57:55;99899.25;;;51.61
19061;BMP280;9663;48.996;8.334;2022-08-25T13:01:02;99906.63;;;51.93
19061;BMP280;9663;48.996;8.334;2022-08-25T13:16:03;99876.75;;;54.31
19061;BMP280;9663;48.996;8.334;2022-08-25T13:18:33;99881.09;;;54.63
19061;BMP280;9663;48.996;8.334;2022-08-25T13:21:23;99883.88;;;54.58
19061;BMP280;9663;48.996;8.334;2022-08-25T13:23:55;99873.53;;;54.60
19061;BMP280;9663;48.996;8.334;2022-08-25T13:26:31;99871.78;;;54.38
19061;BMP280;9663;48.996;8.334;2022-08-25T13:29:10;99870.25;;;54.45
19061;BMP280;9663;48.996;8.334;2022-08-25T13:31:49;99870.22;;;54.32
19061;BMP280;9663;48.996;8.334;2022-08-25T13:34:22;99869.16;;;54.46
19061;BMP280;9663;48.996;8.334;2022-08-25T13:36:49;99859.69;;;54.44
19061;BMP280;9663;48.996;8.334;2022-08-25T13:39:36;99854.25;;;53.80
19061;BMP280;9663;48.996;8.334;2022-08-25T13:42:11;99848.75;;;52.84
19061;BMP280;9663;48.996;8.334;2022-08-25T13:44:39;99851.00;;;51.78
19061;BMP280;9663;48.996;8.334;2022-08-25T13:47:15;99856.06;;;50.58
19061;BMP280;9663;48.996;8.334;2022-08-25T13:49:45;99855.19;;;49.64
19061;BMP280;9663;48.996;8.334;2022-08-25T13:52:27;99848.59;;;48.79
19061;BMP280;9663;48.996;8.334;2022-08-25T13:54:59;99845.06;;;48.07
19061;BMP280;9663;48.996;8.334;2022-08-25T13:57:29;99845.94;;;47.60
19061;BMP280;9663;48.996;8.334;2022-08-25T14:00:02;99841.84;;;47.31
19061;BMP280;9663;48.996;8.334;2022-08-25T14:02:49;99847.56;;;47.18
19061;BMP280;9663;48.996;8.334;2022-08-25T14:05:39;99831.63;;;47.54
19061;BMP280;9663;48.996;8.334;2022-08-25T14:08:27;99823.13;;;48.51
19061;BMP280;9663;48.996;8.334;2022-08-25T14:11:08;99820.97;;;49.79
19061;BMP280;9663;48.996;8.334;2022-08-25T14:13:36;99807.97;;;50.80
19061;BMP280;9663;48.996;8.334;2022-08-25T14:16:14;99818.88;;;51.71
19061;BMP280;9663;48.996;8.334;2022-08-25T14:18:51;99815.13;;;52.33
19061;BMP280;9663;48.996;8.334;2022-08-25T14:21:24;99807.34;;;52.83
19061;BMP280;9663;48.996;8.334;2022-08-25T14:23:53;99810.34;;;53.23
19061;BMP280;9663;48.996;8.334;2022-08-25T14:26:20;99808.75;;;53.22
19061;BMP280;9663;48.996;8.334;2022-08-25T14:28:46;99813.19;;;53.32
19061;BMP280;9663;48.996;8.334;2022-08-25T14:31:25;99808.13;;;53.25
19061;BMP280;9663;48.996;8.334;2022-08-25T14:34:12;99805.56;;;53.34
19061;BMP280;9663;48.996;8.334;2022-08-25T14:36:39;99811.00;;;53.70
19061;BMP280;9663;48.996;8.334;2022-08-25T14:39:05;99816.41;;;54.07
19061;BMP280;9663;48.996;8.334;2022-08-25T14:41:34;99807.44;;;54.52
19061;BMP280;9663;48.996;8.334;2022-08-25T14:47:42;99792.63;;;55.38
19061;BMP280;9663;48.996;8.334;2022-08-25T14:50:10;99792.88;;;55.71
19061;BMP280;9663;48.996;8.334;2022-08-25T14:52:37;99791.06;;;55.80
19061;BMP280;9663;48.996;8.334;2022-08-25T14:55:03;99797.53;;;55.71
19061;BMP280;9663;48.996;8.334;2022-08-25T14:57:28;99782.84;;;55.72
19061;BMP280;9663;48.996;8.334;2022-08-25T14:59:54;99783.50;;;55.77
19061;BMP280;9663;48.996;8.334;2022-08-25T15:02:22;99792.84;;;55.85
19061;BMP280;9663;48.996;8.334;2022-08-25T15:05:02;99773.38;;;55.91
19061;BMP280;9663;48.996;8.334;2022-08-25T15:07:31;99782.03;;;55.93
19061;BMP280;9663;48.996;8.334;2022-08-25T15:10:16;99775.53;;;55.81
19061;BMP280;9663;48.996;8.334;2022-08-25T15:12:42;99768.53;;;55.44
19061;BMP280;9663;48.996;8.334;2022-08-25T15:15:09;99775.47;;;55.02
19061;BMP280;9663;48.996;8.334;2022-08-25T15:17:36;99768.94;;;54.63
19061;BMP280;9663;48.996;8.334;2022-08-25T15:20:02;99781.31;;;54.42
19061;BMP280;9663;48.996;8.334;2022-08-25T15:22:28;99769.69;;;54.23
19061;BMP280;9663;48.996;8.334;2022-08-25T15:24:54;99766.88;;;54.15
19061;BMP280;9663;48.996;8.334;2022-08-25T15:27:21;99765.59;;;54.26
19061;BMP280;9663;48.996;8.334;2022-08-25T15:29:47;99761.16;;;54.30
19061;BMP280;9663;48.996;8.334;2022-08-25T15:32:13;99770.56;;;54.51
19061;BMP280;9663;48.996;8.334;2022-08-25T15:34:39;99764.94;;;54.74
19061;BMP280;9663;48.996;8.334;2022-08-25T15:37:10;99762.19;;;55.00
19061;BMP280;9663;48.996;8.334;2022-08-25T15:39:37;99758.72;;;55.22
19061;BMP280;9663;48.996;8.334;2022-08-25T15:42:05;99754.38;;;55.34
19061;BMP280;9663;48.996;8.334;2022-08-25T15:44:31;99753.66;;;55.42
19061;BMP280;9663;48.996;8.334;2022-08-25T15:46:58;99753.66;;;55.42
19061;BMP280;9663;48.996;8.334;2022-08-25T15:49:25;99746.22;;;55.34
19061;BMP280;9663;48.996;8.334;2022-08-25T15:51:52;99745.13;;;55.22
19061;BMP280;9663;48.996;8.334;2022-08-25T15:54:19;99750.56;;;55.22
19061;BMP280;9663;48.996;8.334;2022-08-25T15:56:45;99742.31;;;55.27
19061;BMP280;9663;48.996;8.334;2022-08-25T15:59:12;99740.63;;;55.31
19061;BMP280;9663;48.996;8.334;2022-08-25T16:01:39;99747.56;;;55.23
19061;BMP280;9663;48.996;8.334;2022-08-25T16:04:06;99742.47;;;55.08
19061;BMP280;9663;48.996;8.334;2022-08-25T16:06:32;99740.88;;;54.94
19061;BMP280;9663;48.996;8.334;2022-08-25T16:08:59;99735.28;;;54.64
19061;BMP280;9663;48.996;8.334;2022-08-25T16:11:29;99745.63;;;53.90
19061;BMP280;9663;48.996;8.334;2022-08-25T16:13:56;99742.28;;;52.88
19061;BMP280;9663;48.996;8.334;2022-08-25T16:16:25;99746.69;;;51.77
19061;BMP280;9663;48.996;8.334;2022-08-25T16:18:52;99755.91;;;50.70
19061;BMP280;9663;48.996;8.334;2022-08-25T16:21:26;99757.09;;;49.90
19061;BMP280;9663;48.996;8.334;2022-08-25T16:23:57;99757.56;;;49.37